sensor_id;sensor_type;location;lat;lon;timestamp;P1;durP1;ratioP1;P2;durP2;ratioP2
39314;SDS011;28703;44.412;11.918;2023-12-20T00:01:00;23.33;;;18.33;;
39314;SDS011;28703;44.412;11.918;2023-12-20T00:03:26;28.73;;;18.50;;
39314;SDS011;28703;44.412;11.918;2023-12-20T00:05:52;25.25;;;19.00;;
39314;SDS011;28703;44.412;11.918;2023-12-20T00:08:17;26.88;;;19.27;;
39314;SDS011;28703;44.412;11.918;2023-12-20T00:10:43;32.03;;;20.35;;
39314;SDS011;28703;44.412;11.918;2023-12-20T00:13:10;29.70;;;18.90;;
39314;SDS011;28703;44.412;11.918;2023-12-20T00:15:36;26.95;;;19.48;;
39314;SDS011;28703;44.412;11.918;2023-12-20T00:18:02;29.13;;;20.00;;
39314;SDS011;28703;44.412;11.918;2023-12-20T00:20:28;26.65;;;18.55;;
39314;SDS011;28703;44.412;11.918;2023-12-20T00:22:55;26.23;;;18.20;;
39314;SDS011;28703;44.412;11.918;2023-12-20T00:25:23;29.63;;;21.63;;
39314;SDS011;28703;44.412;11.918;2023-12-20T00:27:49;26.83;;;20.88;;
39314;SDS011;28703;44.412;11.918;2023-12-20T00:30:15;32.47;;;22.17;;
39314;SDS011;28703;44.412;11.918;2023-12-20T00:32:40;27.25;;;19.80;;
39314;SDS011;28703;44.412;11.918;2023-12-20T00:35:14;33.10;;;22.30;;
39314;SDS011;28703;44.412;11.918;2023-12-20T00:37:40;28.42;;;20.13;;
39314;SDS011;28703;44.412;11.918;2023-12-20T00:40:07;31.23;;;19.95;;
39314;SDS011;28703;44.412;11.918;2023-12-20T00:42:34;27.52;;;20.77;;
39314;SDS011;28703;44.412;11.918;2023-12-20T00:45:00;29.92;;;19.83;;
39314;SDS011;28703;44.412;11.918;2023-12-20T00:47:27;29.77;;;19.83;;
39314;SDS011;28703;44.412;11.918;2023-12-20T00:49:53;26.33;;;19.15;;
39314;SDS011;28703;44.412;11.918;2023-12-20T00:52:19;29.30;;;19.67;;
39314;SDS011;28703;44.412;11.918;2023-12-20T00:54:45;28.15;;;20.65;;
39314;SDS011;28703;44.412;11.918;2023-12-20T00:57:11;29.38;;;19.67;;
39314;SDS011;28703;44.412;11.918;2023-12-20T00:59:36;27.88;;;19.15;;
39314;SDS011;28703;44.412;11.918;2023-12-20T01:02:02;30.30;;;19.88;;
39314;SDS011;28703;44.412;11.918;2023-12-20T01:04:28;31.00;;;20.42;;
39314;SDS011;28703;44.412;11.918;2023-12-20T01:06:54;26.98;;;19.73;;
39314;SDS011;28703;44.412;11.918;2023-12-20T01:09:20;35.50;;;19.83;;
39314;SDS011;28703;44.412;11.918;2023-12-20T01:11:48;27.30;;;18.85;;
39314;SDS011;28703;44.412;11.918;2023-12-20T01:14:14;27.17;;;19.15;;
39314;SDS011;28703;44.412;11.918;2023-12-20T01:16:40;26.95;;;18.58;;
39314;SDS011;28703;44.412;11.918;2023-12-20T01:19:06;26.48;;;17.88;;
39314;SDS011;28703;44.412;11.918;2023-12-20T01:21:32;27.92;;;19.95;;
39314;SDS011;28703;44.412;11.918;2023-12-20T01:23:57;31.10;;;19.02;;
39314;SDS011;28703;44.412;11.918;2023-12-20T01:26:23;30.05;;;19.08;;
39314;SDS011;28703;44.412;11.918;2023-12-20T01:28:49;28.73;;;19.00;;
39314;SDS011;28703;44.412;11.918;2023-12-20T01:31:15;28.77;;;18.30;;
39314;SDS011;28703;44.412;11.918;2023-12-20T01:33:40;28.67;;;20.05;;
39314;SDS011;28703;44.412;11.918;2023-12-20T01:36:06;27.27;;;18.58;;
39314;SDS011;28703;44.412;11.918;2023-12-20T01:38:32;30.25;;;19.65;;
39314;SDS011;28703;44.412;11.918;2023-12-20T01:40:58;29.50;;;19.48;;
39314;SDS011;28703;44.412;11.918;2023-12-20T01:43:24;28.02;;;20.58;;
39314;SDS011;28703;44.412;11.918;2023-12-20T01:45:50;31.08;;;20.10;;
39314;SDS011;28703;44.412;11.918;2023-12-20T01:48:16;27.30;;;18.83;;
39314;SDS011;28703;44.412;11.918;2023-12-20T01:50:43;25.60;;;18.48;;
39314;SDS011;28703;44.412;11.918;2023-12-20T01:53:10;28.52;;;20.30;;
39314;SDS011;28703;44.412;11.918;2023-12-20T01:55:38;25.73;;;17.55;;
39314;SDS011;28703;44.412;11.918;2023-12-20T01:58:06;25.77;;;18.33;;
39314;SDS011;28703;44.412;11.918;2023-12-20T02:00:32;25.33;;;19.02;;
39314;SDS011;28703;44.412;11.918;2023-12-20T02:03:01;27.30;;;19.50;;
39314;SDS011;28703;44.412;11.918;2023-12-20T02:05:29;26.58;;;18.02;;
39314;SDS011;28703;44.412;11.918;2023-12-20T02:07:56;24.38;;;17.42;;
39314;SDS011;28703;44.412;11.918;2023-12-20T02:10:21;28.52;;;19.38;;
39314;SDS011;28703;44.412;11.918;2023-12-20T02:12:48;30.90;;;19.90;;
39314;SDS011;28703;44.412;11.918;2023-12-20T02:15:14;27.88;;;19.50;;
39314;SDS011;28703;44.412;11.918;2023-12-20T02:17:40;27.92;;;19.70;;
39314;SDS011;28703;44.412;11.918;2023-12-20T02:20:06;26.02;;;18.13;;
39314;SDS011;28703;44.412;11.918;2023-12-20T02:22:32;24.63;;;17.83;;
39314;SDS011;28703;44.412;11.918;2023-12-20T02:24:58;29.15;;;20.23;;
39314;SDS011;28703;44.412;11.918;2023-12-20T02:27:24;26.35;;;19.45;;
39314;SDS011;28703;44.412;11.918;2023-12-20T02:29:50;30.65;;;20.55;;
39314;SDS011;28703;44.412;11.918;2023-12-20T02:32:17;29.42;;;18.10;;
39314;SDS011;28703;44.412;11.918;2023-12-20T02:34:43;27.48;;;19.42;;
39314;SDS011;28703;44.412;11.918;2023-12-20T02:37:09;28.23;;;20.20;;
39314;SDS011;28703;44.412;11.918;2023-12-20T02:39:35;29.20;;;20.30;;
39314;SDS011;28703;44.412;11.918;2023-12-20T02:42:01;31.45;;;20.45;;
39314;SDS011;28703;44.412;11.918;2023-12-20T02:44:27;29.98;;;19.67;;
39314;SDS011;28703;44.412;11.918;2023-12-20T02:46:52;29.73;;;20.80;;
39314;SDS011;28703;44.412;11.918;2023-12-20T02:49:18;29.23;;;20.13;;
39314;SDS011;28703;44.412;11.918;2023-12-20T02:51:44;32.47;;;21.83;;
39314;SDS011;28703;44.412;11.918;2023-12-20T02:54:11;28.52;;;19.27;;
39314;SDS011;28703;44.412;11.918;2023-12-20T02:56:37;30.58;;;19.02;;
39314;SDS011;28703;44.412;11.918;2023-12-20T02:59:03;30.13;;;19.77;;
39314;SDS011;28703;44.412;11.918;2023-12-20T03:01:31;29.45;;;18.73;;
39314;SDS011;28703;44.412;11.918;2023-12-20T03:03:57;27.40;;;20.35;;
39314;SDS011;28703;44.412;11.918;2023-12-20T03:06:23;31.83;;;19.05;;
39314;SDS011;28703;44.412;11.918;2023-12-20T03:08:49;26.40;;;18.52;;
39314;SDS011;28703;44.412;11.918;2023-12-20T03:11:15;26.85;;;19.25;;
39314;SDS011;28703;44.412;11.918;2023-12-20T03:13:41;30.10;;;18.35;;
39314;SDS011;28703;44.412;11.918;2023-12-20T03:16:10;23.58;;;17.90;;
39314;SDS011;28703;44.412;11.918;2023-12-20T03:18:36;24.80;;;17.85;;
39314;SDS011;28703;44.412;11.918;2023-12-20T03:21:02;22.77;;;16.15;;
39314;SDS011;28703;44.412;11.918;2023-12-20T03:23:29;25.92;;;18.27;;
39314;SDS011;28703;44.412;11.918;2023-12-20T03:25:57;27.20;;;18.50;;
39314;SDS011;28703;44.412;11.918;2023-12-20T03:28:23;23.35;;;17.80;;
39314;SDS011;28703;44.412;11.918;2023-12-20T03:30:49;24.00;;;17.15;;
39314;SDS011;28703;44.412;11.918;2023-12-20T03:33:15;24.50;;;18.17;;
39314;SDS011;28703;44.412;11.918;2023-12-20T03:35:41;26.05;;;16.98;;
39314;SDS011;28703;44.412;11.918;2023-12-20T03:38:07;25.50;;;17.65;;
39314;SDS011;28703;44.412;11.918;2023-12-20T03:40:33;25.58;;;16.60;;
39314;SDS011;28703;44.412;11.918;2023-12-20T03:42:59;25.88;;;18.33;;
39314;SDS011;28703;44.412;11.918;2023-12-20T03:45:24;24.10;;;17.60;;
39314;SDS011;28703;44.412;11.918;2023-12-20T03:47:50;25.70;;;17.67;;
39314;SDS011;28703;44.412;11.918;2023-12-20T03:50:23;28.95;;;18.17;;
39314;SDS011;28703;44.412;11.918;2023-12-20T03:52:49;23.58;;;17.17;;
39314;SDS011;28703;44.412;11.918;2023-12-20T03:55:15;24.92;;;17.65;;
39314;SDS011;28703;44.412;11.918;2023-12-20T03:57:41;22.42;;;17.25;;
39314;SDS011;28703;44.412;11.918;2023-12-20T04:00:08;24.52;;;17.33;;
39314;SDS011;28703;44.412;11.918;2023-12-20T04:02:40;22.50;;;16.53;;
39314;SDS011;28703;44.412;11.918;2023-12-20T04:05:07;23.58;;;16.55;;
39314;SDS011;28703;44.412;11.918;2023-12-20T04:07:33;23.73;;;16.25;;
39314;SDS011;28703;44.412;11.918;2023-12-20T04:10:00;24.02;;;16.25;;
39314;SDS011;28703;44.412;11.918;2023-12-20T04:12:26;22.92;;;16.88;;
39314;SDS011;28703;44.412;11.918;2023-12-20T04:14:55;21.58;;;16.73;;
39314;SDS011;28703;44.412;11.918;2023-12-20T04:17:22;22.42;;;16.58;;
39314;SDS011;28703;44.412;11.918;2023-12-20T04:19:51;25.02;;;16.95;;
39314;SDS011;28703;44.412;11.918;2023-12-20T04:22:20;21.58;;;16.05;;
39314;SDS011;28703;44.412;11.918;2023-12-20T04:24:45;19.63;;;15.70;;
39314;SDS011;28703;44.412;11.918;2023-12-20T04:27:11;22.50;;;15.27;;
39314;SDS011;28703;44.412;11.918;2023-12-20T04:29:37;21.33;;;15.25;;
39314;SDS011;28703;44.412;11.918;2023-12-20T04:32:03;20.05;;;14.23;;
39314;SDS011;28703;44.412;11.918;2023-12-20T04:34:30;21.15;;;13.52;;
39314;SDS011;28703;44.412;11.918;2023-12-20T04:36:55;22.50;;;14.38;;
39314;SDS011;28703;44.412;11.918;2023-12-20T04:39:21;21.02;;;15.07;;
39314;SDS011;28703;44.412;11.918;2023-12-20T04:41:47;19.27;;;13.88;;
39314;SDS011;28703;44.412;11.918;2023-12-20T04:44:13;16.50;;;13.65;;
39314;SDS011;28703;44.412;11.918;2023-12-20T04:46:39;19.63;;;14.38;;
39314;SDS011;28703;44.412;11.918;2023-12-20T04:49:05;27.75;;;15.63;;
39314;SDS011;28703;44.412;11.918;2023-12-20T04:51:34;22.98;;;15.35;;
39314;SDS011;28703;44.412;11.918;2023-12-20T04:54:00;25.10;;;15.85;;
39314;SDS011;28703;44.412;11.918;2023-12-20T04:56:27;22.60;;;14.43;;
39314;SDS011;28703;44.412;11.918;2023-12-20T04:58:52;21.35;;;14.60;;
39314;SDS011;28703;44.412;11.918;2023-12-20T05:01:18;28.80;;;15.23;;
39314;SDS011;28703;44.412;11.918;2023-12-20T05:03:44;23.30;;;14.95;;
39314;SDS011;28703;44.412;11.918;2023-12-20T05:06:10;21.40;;;14.43;;
39314;SDS011;28703;44.412;11.918;2023-12-20T05:08:36;23.05;;;15.55;;
39314;SDS011;28703;44.412;11.918;2023-12-20T05:11:02;29.05;;;16.30;;
39314;SDS011;28703;44.412;11.918;2023-12-20T05:13:28;23.30;;;15.63;;
39314;SDS011;28703;44.412;11.918;2023-12-20T05:15:54;25.90;;;16.75;;
39314;SDS011;28703;44.412;11.918;2023-12-20T05:18:20;23.73;;;16.02;;
39314;SDS011;28703;44.412;11.918;2023-12-20T05:20:46;24.77;;;17.20;;
39314;SDS011;28703;44.412;11.918;2023-12-20T05:23:12;23.38;;;15.65;;
39314;SDS011;28703;44.412;11.918;2023-12-20T05:25:38;20.33;;;15.10;;
39314;SDS011;28703;44.412;11.918;2023-12-20T05:28:04;33.20;;;18.83;;
39314;SDS011;28703;44.412;11.918;2023-12-20T05:30:30;29.98;;;20.85;;
39314;SDS011;28703;44.412;11.918;2023-12-20T05:32:56;26.00;;;17.48;;
39314;SDS011;28703;44.412;11.918;2023-12-20T05:35:22;26.98;;;17.90;;
39314;SDS011;28703;44.412;11.918;2023-12-20T05:37:48;24.90;;;17.80;;
39314;SDS011;28703;44.412;11.918;2023-12-20T05:40:15;24.08;;;15.73;;
39314;SDS011;28703;44.412;11.918;2023-12-20T05:42:40;23.30;;;15.27;;
39314;SDS011;28703;44.412;11.918;2023-12-20T05:45:06;23.98;;;15.27;;
39314;SDS011;28703;44.412;11.918;2023-12-20T05:47:33;25.13;;;14.95;;
39314;SDS011;28703;44.412;11.918;2023-12-20T05:49:58;23.10;;;16.10;;
39314;SDS011;28703;44.412;11.918;2023-12-20T05:52:24;26.35;;;14.93;;
39314;SDS011;28703;44.412;11.918;2023-12-20T05:54:50;25.40;;;15.52;;
39314;SDS011;28703;44.412;11.918;2023-12-20T05:57:16;25.60;;;16.77;;
39314;SDS011;28703;44.412;11.918;2023-12-20T05:59:41;22.15;;;14.75;;
39314;SDS011;28703;44.412;11.918;2023-12-20T06:02:07;27.05;;;15.93;;
39314;SDS011;28703;44.412;11.918;2023-12-20T06:04:33;22.27;;;15.43;;
39314;SDS011;28703;44.412;11.918;2023-12-20T06:06:59;23.98;;;15.60;;
39314;SDS011;28703;44.412;11.918;2023-12-20T06:09:26;21.95;;;15.13;;
39314;SDS011;28703;44.412;11.918;2023-12-20T06:11:52;24.75;;;15.98;;
39314;SDS011;28703;44.412;11.918;2023-12-20T06:14:18;26.40;;;16.83;;
39314;SDS011;28703;44.412;11.918;2023-12-20T06:16:45;28.85;;;17.92;;
39314;SDS011;28703;44.412;11.918;2023-12-20T06:19:11;29.77;;;20.42;;
39314;SDS011;28703;44.412;11.918;2023-12-20T06:21:37;31.52;;;19.70;;
39314;SDS011;28703;44.412;11.918;2023-12-20T06:24:02;26.42;;;19.10;;
39314;SDS011;28703;44.412;11.918;2023-12-20T06:26:28;28.60;;;17.92;;
39314;SDS011;28703;44.412;11.918;2023-12-20T06:28:54;30.77;;;18.98;;
39314;SDS011;28703;44.412;11.918;2023-12-20T06:31:20;32.50;;;19.33;;
39314;SDS011;28703;44.412;11.918;2023-12-20T06:33:46;26.02;;;18.20;;
39314;SDS011;28703;44.412;11.918;2023-12-20T06:36:14;29.13;;;19.00;;
39314;SDS011;28703;44.412;11.918;2023-12-20T06:38:40;38.03;;;19.77;;
39314;SDS011;28703;44.412;11.918;2023-12-20T06:41:07;32.17;;;19.10;;
39314;SDS011;28703;44.412;11.918;2023-12-20T06:43:33;43.22;;;21.05;;
39314;SDS011;28703;44.412;11.918;2023-12-20T06:46:00;28.85;;;18.75;;
39314;SDS011;28703;44.412;11.918;2023-12-20T06:48:26;27.42;;;17.58;;
39314;SDS011;28703;44.412;11.918;2023-12-20T06:50:52;28.67;;;18.67;;
39314;SDS011;28703;44.412;11.918;2023-12-20T06:53:18;25.92;;;16.77;;
39314;SDS011;28703;44.412;11.918;2023-12-20T06:55:44;26.35;;;16.55;;
39314;SDS011;28703;44.412;11.918;2023-12-20T06:58:09;25.35;;;17.17;;
39314;SDS011;28703;44.412;11.918;2023-12-20T07:00:35;26.05;;;17.73;;
39314;SDS011;28703;44.412;11.918;2023-12-20T07:03:01;32.70;;;17.42;;
39314;SDS011;28703;44.412;11.918;2023-12-20T07:05:27;25.40;;;17.33;;
39314;SDS011;28703;44.412;11.918;2023-12-20T07:07:53;30.90;;;16.58;;
39314;SDS011;28703;44.412;11.918;2023-12-20T07:10:19;30.45;;;17.00;;
39314;SDS011;28703;44.412;11.918;2023-12-20T07:12:44;25.05;;;16.77;;
39314;SDS011;28703;44.412;11.918;2023-12-20T07:15:10;25.63;;;16.20;;
39314;SDS011;28703;44.412;11.918;2023-12-20T07:17:36;24.20;;;16.50;;
39314;SDS011;28703;44.412;11.918;2023-12-20T07:20:02;33.83;;;17.35;;
39314;SDS011;28703;44.412;11.918;2023-12-20T07:22:29;25.30;;;15.50;;
39314;SDS011;28703;44.412;11.918;2023-12-20T07:24:58;27.77;;;17.17;;
39314;SDS011;28703;44.412;11.918;2023-12-20T07:27:25;31.45;;;17.40;;
39314;SDS011;28703;44.412;11.918;2023-12-20T07:29:51;25.42;;;16.60;;
39314;SDS011;28703;44.412;11.918;2023-12-20T07:32:17;31.98;;;17.25;;
39314;SDS011;28703;44.412;11.918;2023-12-20T07:34:43;30.08;;;17.15;;
39314;SDS011;28703;44.412;11.918;2023-12-20T07:37:09;23.85;;;16.58;;
39314;SDS011;28703;44.412;11.918;2023-12-20T07:39:39;27.83;;;16.92;;
39314;SDS011;28703;44.412;11.918;2023-12-20T07:42:06;25.15;;;17.63;;
39314;SDS011;28703;44.412;11.918;2023-12-20T07:44:32;30.40;;;18.98;;
39314;SDS011;28703;44.412;11.918;2023-12-20T07:46:58;32.40;;;20.77;;
39314;SDS011;28703;44.412;11.918;2023-12-20T07:49:24;31.73;;;19.70;;
39314;SDS011;28703;44.412;11.918;2023-12-20T07:51:50;31.83;;;20.17;;
39314;SDS011;28703;44.412;11.918;2023-12-20T07:54:16;36.03;;;22.00;;
39314;SDS011;28703;44.412;11.918;2023-12-20T07:56:41;37.95;;;23.08;;
39314;SDS011;28703;44.412;11.918;2023-12-20T07:59:07;42.13;;;24.92;;
39314;SDS011;28703;44.412;11.918;2023-12-20T08:01:33;41.58;;;23.98;;
39314;SDS011;28703;44.412;11.918;2023-12-20T08:03:59;40.75;;;24.67;;
39314;SDS011;28703;44.412;11.918;2023-12-20T08:06:24;35.65;;;23.65;;
39314;SDS011;28703;44.412;11.918;2023-12-20T08:08:50;33.28;;;22.13;;
39314;SDS011;28703;44.412;11.918;2023-12-20T08:11:16;30.90;;;21.30;;
39314;SDS011;28703;44.412;11.918;2023-12-20T08:13:42;28.20;;;20.20;;
39314;SDS011;28703;44.412;11.918;2023-12-20T08:16:08;28.92;;;21.13;;
39314;SDS011;28703;44.412;11.918;2023-12-20T08:18:34;31.92;;;18.73;;
39314;SDS011;28703;44.412;11.918;2023-12-20T08:21:00;26.58;;;18.50;;
39314;SDS011;28703;44.412;11.918;2023-12-20T08:23:26;27.13;;;18.00;;
39314;SDS011;28703;44.412;11.918;2023-12-20T08:25:52;26.52;;;19.63;;
39314;SDS011;28703;44.412;11.918;2023-12-20T08:28:18;30.48;;;19.80;;
39314;SDS011;28703;44.412;11.918;2023-12-20T08:30:44;26.65;;;17.75;;
39314;SDS011;28703;44.412;11.918;2023-12-20T08:33:10;27.17;;;18.40;;
39314;SDS011;28703;44.412;11.918;2023-12-20T08:35:40;25.60;;;16.60;;
39314;SDS011;28703;44.412;11.918;2023-12-20T08:38:06;23.25;;;15.68;;
39314;SDS011;28703;44.412;11.918;2023-12-20T08:40:32;27.33;;;16.00;;
39314;SDS011;28703;44.412;11.918;2023-12-20T08:42:58;20.88;;;14.88;;
39314;SDS011;28703;44.412;11.918;2023-12-20T08:45:24;20.63;;;14.90;;
39314;SDS011;28703;44.412;11.918;2023-12-20T08:47:49;19.08;;;14.68;;
39314;SDS011;28703;44.412;11.918;2023-12-20T08:50:15;20.98;;;14.30;;
39314;SDS011;28703;44.412;11.918;2023-12-20T08:52:41;22.60;;;15.02;;
39314;SDS011;28703;44.412;11.918;2023-12-20T08:55:07;24.75;;;15.80;;
39314;SDS011;28703;44.412;11.918;2023-12-20T08:57:35;21.42;;;13.20;;
39314;SDS011;28703;44.412;11.918;2023-12-20T09:00:01;26.30;;;15.05;;
39314;SDS011;28703;44.412;11.918;2023-12-20T09:02:28;25.20;;;14.25;;
39314;SDS011;28703;44.412;11.918;2023-12-20T09:04:54;19.33;;;13.90;;
39314;SDS011;28703;44.412;11.918;2023-12-20T09:07:24;19.17;;;13.68;;
39314;SDS011;28703;44.412;11.918;2023-12-20T09:09:50;18.85;;;13.85;;
39314;SDS011;28703;44.412;11.918;2023-12-20T09:12:17;23.48;;;13.55;;
39314;SDS011;28703;44.412;11.918;2023-12-20T09:14:44;17.67;;;12.90;;
39314;SDS011;28703;44.412;11.918;2023-12-20T09:17:11;26.23;;;14.57;;
39314;SDS011;28703;44.412;11.918;2023-12-20T09:19:37;21.02;;;15.05;;
39314;SDS011;28703;44.412;11.918;2023-12-20T09:22:04;22.50;;;15.20;;
39314;SDS011;28703;44.412;11.918;2023-12-20T09:24:30;22.15;;;16.80;;
39314;SDS011;28703;44.412;11.918;2023-12-20T09:26:56;25.48;;;16.02;;
39314;SDS011;28703;44.412;11.918;2023-12-20T09:29:22;28.02;;;19.48;;
39314;SDS011;28703;44.412;11.918;2023-12-20T09:31:49;26.50;;;18.35;;
39314;SDS011;28703;44.412;11.918;2023-12-20T09:34:15;27.00;;;20.83;;
39314;SDS011;28703;44.412;11.918;2023-12-20T09:36:44;31.63;;;20.55;;
39314;SDS011;28703;44.412;11.918;2023-12-20T09:39:17;29.25;;;20.98;;
39314;SDS011;28703;44.412;11.918;2023-12-20T09:44:29;33.90;;;22.05;;
39314;SDS011;28703;44.412;11.918;2023-12-20T09:46:56;28.15;;;22.40;;
39314;SDS011;28703;44.412;11.918;2023-12-20T09:49:22;28.20;;;22.48;;
39314;SDS011;28703;44.412;11.918;2023-12-20T09:51:52;27.10;;;21.90;;
39314;SDS011;28703;44.412;11.918;2023-12-20T09:54:19;31.17;;;21.35;;
39314;SDS011;28703;44.412;11.918;2023-12-20T09:56:46;33.00;;;22.73;;
39314;SDS011;28703;44.412;11.918;2023-12-20T09:59:13;31.10;;;23.02;;
39314;SDS011;28703;44.412;11.918;2023-12-20T10:01:42;28.17;;;22.33;;
39314;SDS011;28703;44.412;11.918;2023-12-20T10:04:09;31.33;;;22.50;;
39314;SDS011;28703;44.412;11.918;2023-12-20T10:06:40;30.80;;;23.48;;
39314;SDS011;28703;44.412;11.918;2023-12-20T10:09:08;28.42;;;21.95;;
39314;SDS011;28703;44.412;11.918;2023-12-20T10:11:38;33.05;;;24.35;;
39314;SDS011;28703;44.412;11.918;2023-12-20T10:14:04;33.08;;;26.00;;
39314;SDS011;28703;44.412;11.918;2023-12-20T10:16:31;29.10;;;24.60;;
39314;SDS011;28703;44.412;11.918;2023-12-20T10:18:58;44.20;;;26.90;;
39314;SDS011;28703;44.412;11.918;2023-12-20T10:21:26;40.60;;;29.15;;
39314;SDS011;28703;44.412;11.918;2023-12-20T10:23:55;39.20;;;32.22;;
39314;SDS011;28703;44.412;11.918;2023-12-20T10:26:22;43.17;;;30.95;;
39314;SDS011;28703;44.412;11.918;2023-12-20T10:28:50;37.40;;;29.67;;
39314;SDS011;28703;44.412;11.918;2023-12-20T10:33:56;37.70;;;31.70;;
39314;SDS011;28703;44.412;11.918;2023-12-20T10:36:24;42.08;;;32.70;;
39314;SDS011;28703;44.412;11.918;2023-12-20T10:38:52;41.50;;;32.30;;
39314;SDS011;28703;44.412;11.918;2023-12-20T10:41:24;39.47;;;32.35;;
39314;SDS011;28703;44.412;11.918;2023-12-20T10:44:06;41.70;;;32.25;;
39314;SDS011;28703;44.412;11.918;2023-12-20T10:46:33;41.00;;;33.42;;
39314;SDS011;28703;44.412;11.918;2023-12-20T10:49:02;43.95;;;34.58;;
39314;SDS011;28703;44.412;11.918;2023-12-20T10:51:30;41.35;;;32.50;;
39314;SDS011;28703;44.412;11.918;2023-12-20T10:53:56;44.47;;;32.25;;
39314;SDS011;28703;44.412;11.918;2023-12-20T10:56:22;44.65;;;34.47;;
39314;SDS011;28703;44.412;11.918;2023-12-20T10:58:49;50.63;;;32.22;;
39314;SDS011;28703;44.412;11.918;2023-12-20T11:01:15;44.92;;;33.50;;
39314;SDS011;28703;44.412;11.918;2023-12-20T11:03:49;37.10;;;30.98;;
39314;SDS011;28703;44.412;11.918;2023-12-20T11:06:27;37.17;;;31.23;;
39314;SDS011;28703;44.412;11.918;2023-12-20T11:09:17;43.63;;;34.63;;
39314;SDS011;28703;44.412;11.918;2023-12-20T11:14:19;44.42;;;36.38;;
39314;SDS011;28703;44.412;11.918;2023-12-20T11:16:50;46.75;;;41.63;;
39314;SDS011;28703;44.412;11.918;2023-12-20T11:19:30;47.95;;;37.95;;
39314;SDS011;28703;44.412;11.918;2023-12-20T11:21:56;43.65;;;36.42;;
39314;SDS011;28703;44.412;11.918;2023-12-20T11:24:22;43.55;;;34.58;;
39314;SDS011;28703;44.412;11.918;2023-12-20T11:26:50;45.33;;;36.78;;
39314;SDS011;28703;44.412;11.918;2023-12-20T11:29:31;39.42;;;34.35;;
39314;SDS011;28703;44.412;11.918;2023-12-20T11:32:01;46.40;;;36.65;;
39314;SDS011;28703;44.412;11.918;2023-12-20T11:35:39;45.50;;;34.85;;
39314;SDS011;28703;44.412;11.918;2023-12-20T11:37:40;46.63;;;36.42;;
39314;SDS011;28703;44.412;11.918;2023-12-20T11:40:12;42.67;;;36.25;;
39314;SDS011;28703;44.412;11.918;2023-12-20T11:42:40;45.38;;;33.72;;
39314;SDS011;28703;44.412;11.918;2023-12-20T11:45:08;39.45;;;33.88;;
39314;SDS011;28703;44.412;11.918;2023-12-20T11:47:35;45.67;;;35.95;;
39314;SDS011;28703;44.412;11.918;2023-12-20T11:50:01;51.95;;;38.28;;
39314;SDS011;28703;44.412;11.918;2023-12-20T11:52:29;45.38;;;37.03;;
39314;SDS011;28703;44.412;11.918;2023-12-20T11:54:55;40.70;;;35.67;;
39314;SDS011;28703;44.412;11.918;2023-12-20T11:57:22;44.33;;;36.78;;
39314;SDS011;28703;44.412;11.918;2023-12-20T11:59:48;46.17;;;37.58;;
39314;SDS011;28703;44.412;11.918;2023-12-20T12:02:14;44.42;;;35.50;;
39314;SDS011;28703;44.412;11.918;2023-12-20T12:04:43;38.97;;;34.17;;
39314;SDS011;28703;44.412;11.918;2023-12-20T12:07:09;47.05;;;37.97;;
39314;SDS011;28703;44.412;11.918;2023-12-20T12:09:35;54.60;;;39.63;;
39314;SDS011;28703;44.412;11.918;2023-12-20T12:12:01;50.13;;;42.08;;
39314;SDS011;28703;44.412;11.918;2023-12-20T12:14:27;61.38;;;43.83;;
39314;SDS011;28703;44.412;11.918;2023-12-20T12:16:53;51.83;;;43.08;;
39314;SDS011;28703;44.412;11.918;2023-12-20T12:19:22;58.55;;;43.63;;
39314;SDS011;28703;44.412;11.918;2023-12-20T12:21:49;60.00;;;44.13;;
39314;SDS011;28703;44.412;11.918;2023-12-20T12:24:33;59.53;;;45.33;;
39314;SDS011;28703;44.412;11.918;2023-12-20T12:26:59;54.50;;;44.25;;
39314;SDS011;28703;44.412;11.918;2023-12-20T12:29:25;51.33;;;44.05;;
39314;SDS011;28703;44.412;11.918;2023-12-20T12:31:52;60.17;;;49.08;;
39314;SDS011;28703;44.412;11.918;2023-12-20T12:34:18;56.78;;;47.63;;
39314;SDS011;28703;44.412;11.918;2023-12-20T12:36:44;53.13;;;45.47;;
39314;SDS011;28703;44.412;11.918;2023-12-20T12:39:14;57.40;;;47.50;;
39314;SDS011;28703;44.412;11.918;2023-12-20T12:41:40;60.38;;;49.58;;
39314;SDS011;28703;44.412;11.918;2023-12-20T12:44:06;64.05;;;48.78;;
39314;SDS011;28703;44.412;11.918;2023-12-20T12:46:32;59.72;;;49.78;;
39314;SDS011;28703;44.412;11.918;2023-12-20T12:48:58;60.75;;;47.40;;
39314;SDS011;28703;44.412;11.918;2023-12-20T12:51:25;57.80;;;45.97;;
39314;SDS011;28703;44.412;11.918;2023-12-20T12:53:50;50.30;;;44.70;;
39314;SDS011;28703;44.412;11.918;2023-12-20T12:56:16;61.15;;;48.47;;
39314;SDS011;28703;44.412;11.918;2023-12-20T12:58:42;56.38;;;47.00;;
39314;SDS011;28703;44.412;11.918;2023-12-20T13:01:08;56.45;;;45.75;;
39314;SDS011;28703;44.412;11.918;2023-12-20T13:03:34;54.42;;;44.70;;
39314;SDS011;28703;44.412;11.918;2023-12-20T13:06:00;55.83;;;44.60;;
39314;SDS011;28703;44.412;11.918;2023-12-20T13:08:26;49.92;;;43.78;;
39314;SDS011;28703;44.412;11.918;2023-12-20T13:10:54;55.08;;;44.90;;
39314;SDS011;28703;44.412;11.918;2023-12-20T13:13:20;53.45;;;43.83;;
39314;SDS011;28703;44.412;11.918;2023-12-20T13:15:46;52.65;;;41.63;;
39314;SDS011;28703;44.412;11.918;2023-12-20T13:18:16;50.95;;;41.33;;
39314;SDS011;28703;44.412;11.918;2023-12-20T13:20:43;64.40;;;44.53;;
39314;SDS011;28703;44.412;11.918;2023-12-20T13:23:09;54.60;;;41.60;;
39314;SDS011;28703;44.412;11.918;2023-12-20T13:25:35;54.17;;;43.25;;
39314;SDS011;28703;44.412;11.918;2023-12-20T13:28:01;50.97;;;41.05;;
39314;SDS011;28703;44.412;11.918;2023-12-20T13:30:28;48.67;;;41.70;;
39314;SDS011;28703;44.412;11.918;2023-12-20T13:32:55;46.78;;;38.42;;
39314;SDS011;28703;44.412;11.918;2023-12-20T13:35:20;50.33;;;40.90;;
39314;SDS011;28703;44.412;11.918;2023-12-20T13:37:46;48.85;;;38.95;;
39314;SDS011;28703;44.412;11.918;2023-12-20T13:40:12;48.33;;;38.80;;
39314;SDS011;28703;44.412;11.918;2023-12-20T13:42:39;48.75;;;38.70;;
39314;SDS011;28703;44.412;11.918;2023-12-20T13:45:05;53.00;;;40.28;;
39314;SDS011;28703;44.412;11.918;2023-12-20T13:47:32;51.05;;;41.05;;
39314;SDS011;28703;44.412;11.918;2023-12-20T13:49:58;56.40;;;43.33;;
39314;SDS011;28703;44.412;11.918;2023-12-20T13:52:24;51.80;;;41.58;;
39314;SDS011;28703;44.412;11.918;2023-12-20T13:54:50;58.47;;;42.72;;
39314;SDS011;28703;44.412;11.918;2023-12-20T13:57:15;52.90;;;42.20;;
39314;SDS011;28703;44.412;11.918;2023-12-20T13:59:41;50.13;;;42.15;;
39314;SDS011;28703;44.412;11.918;2023-12-20T14:02:07;51.45;;;40.97;;
39314;SDS011;28703;44.412;11.918;2023-12-20T14:04:33;52.85;;;41.05;;
39314;SDS011;28703;44.412;11.918;2023-12-20T14:06:59;55.85;;;41.13;;
39314;SDS011;28703;44.412;11.918;2023-12-20T14:09:24;53.17;;;41.17;;
39314;SDS011;28703;44.412;11.918;2023-12-20T14:11:50;55.85;;;41.42;;
39314;SDS011;28703;44.412;11.918;2023-12-20T14:14:16;52.30;;;39.55;;